createdAt,value
2023-02-14T00:02:17.058Z,71.08
2023-02-14T00:04:47.020Z,72.35
2023-02-14T00:07:16.293Z,71.32
2023-02-14T00:09:44.276Z,69.34
2023-02-14T00:12:14.550Z,70.09
2023-02-14T00:15:05.303Z,68.68
2023-02-14T00:17:36.182Z,69.93
2023-02-14T00:20:06.093Z,70.46
2023-02-14T00:22:36.539Z,71.22
2023-02-14T00:25:08.470Z,71.88
2023-02-14T00:27:36.374Z,71.32
2023-02-14T00:30:08.208Z,71.58
2023-02-14T00:32:38.009Z,71.22
2023-02-14T00:35:06.379Z,72.00
2023-02-14T00:37:34.346Z,71.93
2023-02-14T00:40:03.827Z,72.85
2023-02-14T00:42:31.716Z,72.74
2023-02-14T00:45:00.810Z,71.46
2023-02-14T00:47:29.190Z,70.15
2023-02-14T00:50:02.850Z,69.69
2023-02-14T00:52:33.757Z,68.37
2023-02-14T00:55:03.202Z,68.52
2023-02-14T00:57:33.347Z,72.08
2023-02-14T01:00:04.497Z,71.22
2023-02-14T01:02:34.412Z,71.92
2023-02-14T01:05:02.471Z,73.36
2023-02-14T01:07:35.729Z,73.14
2023-02-14T01:10:05.182Z,71.57
2023-02-14T01:12:34.335Z,71.54
2023-02-14T01:15:02.227Z,71.33
2023-02-14T01:17:30.053Z,69.81
2023-02-14T01:20:03.713Z,72.19
2023-02-14T01:22:33.650Z,71.91
2023-02-14T01:25:03.428Z,72.32
2023-02-14T01:27:48.726Z,72.26
2023-02-14T01:30:17.244Z,70.58
2023-02-14T01:32:50.899Z,71.63
2023-02-14T01:35:18.881Z,71.45
2023-02-14T01:37:47.809Z,70.80
2023-02-14T01:40:17.773Z,71.56
2023-02-14T01:42:58.232Z,71.55
2023-02-14T01:45:28.232Z,73.62
2023-02-14T01:47:58.705Z,73.60
2023-02-14T01:50:31.574Z,71.97
2023-02-14T01:53:02.515Z,71.01
2023-02-14T01:55:38.787Z,69.91
2023-02-14T01:58:10.866Z,69.57
2023-02-14T02:01:02.443Z,70.85
2023-02-14T02:03:37.279Z,72.87
2023-02-14T02:06:12.087Z,73.86
2023-02-14T02:08:46.943Z,74.05
2023-02-14T02:11:18.131Z,72.63
2023-02-14T02:13:51.391Z,72.43
2023-02-14T02:16:31.187Z,73.62
2023-02-14T02:19:15.131Z,71.03
2023-02-14T02:22:05.779Z,70.35
2023-02-14T02:24:37.588Z,71.25
2023-02-14T02:27:28.609Z,72.18
2023-02-14T02:30:29.762Z,72.75
2023-02-14T02:33:21.768Z,74.63
2023-02-14T02:36:30.632Z,72.56
2023-02-14T02:39:14.893Z,71.73
2023-02-14T02:41:57.963Z,71.42
2023-02-14T02:44:36.646Z,71.84
2023-02-14T02:47:08.737Z,69.77
2023-02-14T02:50:02.183Z,71.40
2023-02-14T02:52:59.001Z,71.30
2023-02-14T02:55:53.303Z,71.44
2023-02-14T02:58:23.730Z,71.42
2023-02-14T03:00:52.825Z,70.18
2023-02-14T03:03:39.116Z,71.46
2023-02-14T03:06:07.577Z,71.40
2023-02-14T03:08:40.286Z,71.73
2023-02-14T03:11:09.487Z,71.83
2023-02-14T03:13:58.373Z,69.62
2023-02-14T03:16:35.166Z,70.13
2023-02-14T03:20:00.648Z,69.39
2023-02-14T03:22:55.407Z,70.39
2023-02-14T03:25:50.178Z,69.97
2023-02-14T03:28:22.193Z,69.01
2023-02-14T03:30:55.962Z,70.68
2023-02-14T03:34:23.490Z,68.99
2023-02-14T03:37:00.959Z,70.98
2023-02-14T03:39:33.624Z,70.58
2023-02-14T03:42:06.387Z,69.56
2023-02-14T03:44:37.505Z,69.03
2023-02-14T03:47:10.036Z,67.90
2023-02-14T03:49:55.545Z,68.36
2023-02-14T03:52:24.628Z,69.29
2023-02-14T03:54:56.665Z,69.05
2023-02-14T03:57:28.170Z,67.52
2023-02-14T03:59:57.844Z,68.92
2023-02-14T04:02:31.574Z,67.02
2023-02-14T04:05:00.430Z,67.98
2023-02-14T04:07:28.693Z,67.82
2023-02-14T04:10:05.989Z,69.11
2023-02-14T04:12:38.181Z,69.68
2023-02-14T04:15:08.798Z,69.50
2023-02-14T04:17:56.815Z,70.86
2023-02-14T04:20:27.970Z,70.84
2023-02-14T04:22:56.047Z,71.51
2023-02-14T04:25:25.142Z,72.11
2023-02-14T04:27:56.100Z,72.37
2023-02-14T04:30:25.493Z,73.33
2023-02-14T04:32:56.897Z,73.69
2023-02-14T04:35:24.762Z,72.71
2023-02-14T04:37:52.544Z,72.85
2023-02-14T04:40:23.543Z,74.06
2023-02-14T04:42:51.457Z,72.18
2023-02-14T04:45:19.527Z,72.13
2023-02-14T04:47:49.294Z,70.98
2023-02-14T04:50:22.246Z,71.11
2023-02-14T04:52:50.521Z,69.59
2023-02-14T04:55:18.366Z,69.31
2023-02-14T04:57:46.187Z,69.40
2023-02-14T05:00:15.172Z,68.94
2023-02-14T05:02:50.782Z,68.51
2023-02-14T05:05:20.890Z,70.43
2023-02-14T05:07:49.056Z,71.33
2023-02-14T05:10:22.113Z,71.91
2023-02-14T05:12:55.856Z,70.78
2023-02-14T05:15:26.486Z,71.06
2023-02-14T05:18:03.035Z,71.10
2023-02-14T05:20:32.123Z,69.45
2023-02-14T05:23:03.616Z,68.17
2023-02-14T05:25:31.825Z,68.04
2023-02-14T05:27:59.663Z,69.27
2023-02-14T05:30:30.202Z,70.90
2023-02-14T05:32:59.775Z,68.79
2023-02-14T05:35:27.887Z,68.84
2023-02-14T05:37:56.024Z,67.92
2023-02-14T05:40:27.333Z,70.37
2023-02-14T05:42:59.120Z,69.65
2023-02-14T05:45:27.303Z,70.11
2023-02-14T05:47:55.110Z,69.46
2023-02-14T05:50:24.275Z,69.99
2023-02-14T05:52:55.717Z,70.28
2023-02-14T05:55:26.970Z,71.21
2023-02-14T05:57:58.473Z,71.69
2023-02-14T06:00:29.446Z,70.03
2023-02-14T06:02:59.475Z,70.35
2023-02-14T06:05:29.576Z,68.41
2023-02-14T06:07:57.415Z,70.28
2023-02-14T06:10:29.644Z,70.24
2023-02-14T06:12:57.665Z,70.88
2023-02-14T06:15:25.870Z,69.73
2023-02-14T06:17:56.566Z,70.68
2023-02-14T06:20:27.398Z,70.22
2023-02-14T06:22:56.627Z,69.79
2023-02-14T06:25:25.566Z,70.90
2023-02-14T06:27:59.872Z,70.68
2023-02-14T06:30:29.078Z,69.16
2023-02-14T06:32:58.031Z,67.41
2023-02-14T06:35:26.015Z,69.26
2023-02-14T06:37:53.967Z,69.89
2023-02-14T06:40:24.123Z,69.62
2023-02-14T06:42:52.117Z,70.34
2023-02-14T06:45:20.338Z,69.29
2023-02-14T06:47:52.593Z,69.86
2023-02-14T06:50:22.222Z,69.08
2023-02-14T06:52:51.382Z,69.56
2023-02-14T06:55:21.354Z,67.71
2023-02-14T06:57:50.505Z,68.03
2023-02-14T07:00:21.939Z,66.86
2023-02-14T07:02:54.749Z,67.63
2023-02-14T07:05:22.886Z,66.70
2023-02-14T07:07:50.836Z,66.57
2023-02-14T07:10:18.928Z,67.16
2023-02-14T07:12:58.449Z,65.53
2023-02-14T07:15:26.367Z,66.67
2023-02-14T07:17:54.191Z,67.52
2023-02-14T07:20:22.440Z,69.05
2023-02-14T07:22:50.382Z,69.15
2023-02-14T07:25:18.453Z,69.29
2023-02-14T07:27:46.480Z,68.59
2023-02-14T07:30:16.484Z,68.73
2023-02-14T07:32:44.589Z,69.29
2023-02-14T07:35:15.553Z,68.66
2023-02-14T07:37:44.648Z,66.82
2023-02-14T07:40:15.549Z,69.72
2023-02-14T07:42:43.740Z,70.99
2023-02-14T07:45:27.382Z,70.16
2023-02-14T07:47:59.033Z,69.17
2023-02-14T07:50:27.964Z,69.18
2023-02-14T07:52:56.106Z,71.40
2023-02-14T07:55:36.446Z,70.91
2023-02-14T07:58:04.621Z,69.85
2023-02-14T08:00:35.393Z,68.14
2023-02-14T08:03:04.773Z,70.06
2023-02-14T08:05:33.796Z,68.84
2023-02-14T08:08:04.188Z,69.03
2023-02-14T08:10:32.298Z,67.60
2023-02-14T08:13:05.730Z,66.77
2023-02-14T08:15:52.730Z,67.16
2023-02-14T08:18:26.595Z,67.09
2023-02-14T08:20:54.671Z,68.25
2023-02-14T08:23:23.122Z,68.36
2023-02-14T08:25:52.372Z,66.98
2023-02-14T08:28:23.319Z,66.56
2023-02-14T08:30:51.771Z,67.30
2023-02-14T08:33:22.903Z,66.98
2023-02-14T08:35:57.186Z,66.48
2023-02-14T08:38:31.938Z,66.79
2023-02-14T08:41:08.608Z,66.33
2023-02-14T08:43:37.057Z,67.41
2023-02-14T08:46:10.968Z,67.19
2023-02-14T08:48:41.075Z,67.77
2023-02-14T08:51:15.039Z,67.57
2023-02-14T08:53:43.452Z,65.73
2023-02-14T08:56:15.355Z,67.36
2023-02-14T08:58:43.354Z,67.84
2023-02-14T09:01:11.866Z,67.52
2023-02-14T09:03:39.991Z,70.81
2023-02-14T09:06:11.439Z,68.85
2023-02-14T09:08:41.133Z,68.02
2023-02-14T09:11:09.776Z,69.66
2023-02-14T09:13:37.911Z,70.11
2023-02-14T09:16:06.397Z,70.02
2023-02-14T09:18:35.112Z,67.91
2023-02-14T09:21:11.064Z,65.91
2023-02-14T09:23:41.882Z,65.37
2023-02-14T09:26:13.687Z,66.49
2023-02-14T09:28:42.114Z,64.78
2023-02-14T09:31:11.226Z,64.41
2023-02-14T09:33:45.932Z,64.90
2023-02-14T09:36:15.520Z,67.02
2023-02-14T09:38:43.635Z,66.89
2023-02-14T09:41:29.595Z,65.26
2023-02-14T09:44:00.641Z,65.94
2023-02-14T09:46:35.851Z,65.10
2023-02-14T09:49:04.461Z,66.80
2023-02-14T09:51:34.107Z,68.23
2023-02-14T09:54:11.072Z,65.28
2023-02-14T09:56:51.382Z,63.74
2023-02-14T09:59:24.816Z,63.93
2023-02-14T10:01:55.576Z,63.71
2023-02-14T10:04:32.036Z,64.13
2023-02-14T10:07:10.067Z,63.83
2023-02-14T10:10:03.939Z,61.64
2023-02-14T10:12:39.032Z,62.11
2023-02-14T10:15:14.186Z,62.56
2023-02-14T10:17:48.899Z,62.73
2023-02-14T10:20:21.936Z,61.90
2023-02-14T10:22:58.694Z,63.68
2023-02-14T10:25:30.635Z,60.77
2023-02-14T10:28:03.922Z,62.39
2023-02-14T10:30:38.906Z,62.95
2023-02-14T10:33:14.269Z,60.39
2023-02-14T10:35:47.662Z,60.62
2023-02-14T10:38:34.836Z,61.22
2023-02-14T10:41:28.278Z,62.92
2023-02-14T10:44:03.616Z,62.61
2023-02-14T10:46:38.376Z,62.21
2023-02-14T10:49:28.692Z,60.82
2023-02-14T10:52:00.397Z,61.20
2023-02-14T10:54:36.740Z,61.65
2023-02-14T10:57:07.083Z,61.93
2023-02-14T10:59:41.718Z,62.77
2023-02-14T11:02:13.685Z,61.55
2023-02-14T11:04:47.461Z,61.03
2023-02-14T11:07:20.098Z,61.33
2023-02-14T11:10:18.118Z,61.06
2023-02-14T11:12:46.431Z,61.20
2023-02-14T11:15:26.459Z,62.24
2023-02-14T11:18:10.758Z,62.74
2023-02-14T11:20:39.310Z,62.44
2023-02-14T11:23:22.539Z,60.69
2023-02-14T11:25:55.891Z,62.08
2023-02-14T11:28:24.344Z,62.39
2023-02-14T11:30:55.953Z,62.54
2023-02-14T11:33:34.002Z,62.28
2023-02-14T11:36:03.950Z,62.82
2023-02-14T11:38:36.724Z,63.72
2023-02-14T11:41:08.886Z,63.74
2023-02-14T11:43:40.001Z,63.70
2023-02-14T11:46:18.029Z,65.26
2023-02-14T11:48:57.746Z,64.99
2023-02-14T11:51:31.068Z,63.59
2023-02-14T11:54:05.088Z,63.19
2023-02-14T11:56:50.148Z,63.66
2023-02-14T11:59:27.665Z,63.74
2023-02-14T12:01:59.568Z,63.57
2023-02-14T12:04:38.089Z,63.51
2023-02-14T12:07:18.584Z,61.89
2023-02-14T12:09:47.608Z,61.58
2023-02-14T12:12:23.317Z,62.30
2023-02-14T12:14:51.286Z,62.71
2023-02-14T12:17:28.913Z,61.76
2023-02-14T12:20:00.889Z,61.30
2023-02-14T12:22:32.062Z,60.48
2023-02-14T12:25:04.799Z,59.76
2023-02-14T12:27:44.261Z,59.70
2023-02-14T12:30:15.283Z,59.93
2023-02-14T12:32:50.936Z,58.97
2023-02-14T12:35:20.973Z,59.06
2023-02-14T12:38:04.642Z,58.44
2023-02-14T12:40:38.463Z,58.57
2023-02-14T12:43:36.196Z,59.13
2023-02-14T12:46:35.339Z,59.32
2023-02-14T12:49:14.126Z,58.52
2023-02-14T12:51:48.272Z,59.24
2023-02-14T12:54:33.758Z,59.38
2023-02-14T12:57:07.556Z,59.15
2023-02-14T12:59:43.958Z,59.28
2023-02-14T13:02:52.298Z,58.86
2023-02-14T13:05:25.645Z,57.55
2023-02-14T13:08:13.524Z,58.54
2023-02-14T13:10:53.545Z,57.14
2023-02-14T13:13:29.878Z,57.80
2023-02-14T13:16:08.281Z,56.79
2023-02-14T13:18:54.523Z,57.44
2023-02-14T13:21:25.760Z,56.36
2023-02-14T13:23:57.297Z,56.51
2023-02-14T13:26:29.962Z,55.81
2023-02-14T13:29:04.373Z,55.88
2023-02-14T13:31:36.513Z,55.49
2023-02-14T13:34:08.456Z,55.67
2023-02-14T13:36:38.555Z,55.46
2023-02-14T13:39:06.792Z,55.68
2023-02-14T13:41:43.926Z,54.82
2023-02-14T13:44:44.822Z,53.60
2023-02-14T13:47:21.027Z,54.58
2023-02-14T13:49:58.637Z,53.44
2023-02-14T13:52:42.240Z,55.50
2023-02-14T13:55:10.928Z,54.64
2023-02-14T13:57:41.281Z,55.44
2023-02-14T14:00:42.112Z,55.20
2023-02-14T14:03:15.958Z,55.12
2023-02-14T14:05:59.279Z,55.59
2023-02-14T14:08:54.447Z,55.77
2023-02-14T14:12:01.325Z,56.03
2023-02-14T14:14:36.317Z,55.95
2023-02-14T14:17:19.410Z,55.33
2023-02-14T14:19:51.398Z,56.72
2023-02-14T14:22:21.483Z,55.93
2023-02-14T14:25:05.251Z,56.38
2023-02-14T14:27:36.257Z,55.94
2023-02-14T14:30:08.852Z,55.26
2023-02-14T14:32:38.218Z,55.68
2023-02-14T14:35:22.356Z,55.48
2023-02-14T14:37:52.721Z,55.27
2023-02-14T14:40:30.086Z,56.39
2023-02-14T14:43:06.903Z,56.13
2023-02-14T14:45:39.048Z,56.81
2023-02-14T14:48:10.678Z,57.32
2023-02-14T14:50:40.905Z,56.14
2023-02-14T14:53:15.446Z,56.68
2023-02-14T14:55:46.764Z,57.58
2023-02-14T14:58:35.456Z,56.84
2023-02-14T15:01:05.503Z,57.64
2023-02-14T15:03:35.649Z,57.37
2023-02-14T15:06:23.530Z,58.07
2023-02-14T15:08:52.004Z,57.32
2023-02-14T15:11:35.560Z,56.85
2023-02-14T15:14:05.735Z,58.04
2023-02-14T15:16:41.677Z,58.04
2023-02-14T15:19:13.075Z,57.76
2023-02-14T15:21:48.513Z,58.26
2023-02-14T15:24:18.702Z,58.45
2023-02-14T15:26:53.395Z,57.97
2023-02-14T15:29:26.361Z,58.02
2023-02-14T15:31:54.949Z,59.19
2023-02-14T15:34:29.125Z,58.70
2023-02-14T15:37:06.597Z,59.56
2023-02-14T15:39:41.682Z,58.78
2023-02-14T15:42:25.986Z,59.66
2023-02-14T15:45:15.173Z,59.45
2023-02-14T15:47:44.290Z,58.89
2023-02-14T15:50:15.974Z,59.84
2023-02-14T15:52:45.618Z,59.91
2023-02-14T15:55:16.836Z,59.78
2023-02-14T15:57:50.204Z,61.13
2023-02-14T16:00:19.594Z,61.60
2023-02-14T16:02:52.068Z,62.44
2023-02-14T16:05:21.852Z,63.03
2023-02-14T16:08:03.684Z,62.73
2023-02-14T16:10:33.800Z,63.16
2023-02-14T16:13:04.791Z,63.21
2023-02-14T16:15:35.274Z,63.34
2023-02-14T16:18:08.133Z,64.00
2023-02-14T16:20:46.935Z,64.69
2023-02-14T16:23:27.398Z,65.15
2023-02-14T16:25:58.375Z,66.35
2023-02-14T16:28:30.326Z,66.56
2023-02-14T16:31:05.926Z,66.30
2023-02-14T16:33:35.847Z,66.42
2023-02-14T16:36:09.475Z,66.91
2023-02-14T16:38:54.077Z,66.83
2023-02-14T16:41:24.262Z,66.92
2023-02-14T16:43:53.413Z,67.06
2023-02-14T16:46:26.621Z,66.82
2023-02-14T16:48:57.367Z,66.04
2023-02-14T16:51:27.418Z,66.53
2023-02-14T16:53:58.622Z,66.78
2023-02-14T16:56:29.759Z,66.69
2023-02-14T16:59:00.650Z,66.97
2023-02-14T17:01:32.796Z,66.49
2023-02-14T17:04:01.207Z,65.68
2023-02-14T17:06:30.715Z,65.48
2023-02-14T17:09:07.150Z,64.56
2023-02-14T17:11:41.396Z,63.35
2023-02-14T17:14:14.113Z,63.88
2023-02-14T17:16:42.298Z,63.12
2023-02-14T17:19:10.462Z,62.54
2023-02-14T17:21:47.927Z,62.79
2023-02-14T17:24:17.300Z,62.49
2023-02-14T17:26:46.745Z,63.19
2023-02-14T17:29:16.917Z,63.37
2023-02-14T17:31:47.684Z,62.38
2023-02-14T17:34:15.653Z,62.26
2023-02-14T17:36:52.006Z,62.50
2023-02-14T17:39:24.000Z,62.48
2023-02-14T17:41:56.644Z,63.45
2023-02-14T17:44:24.606Z,62.58
2023-02-14T17:46:54.604Z,65.22
2023-02-14T17:49:23.796Z,64.81
2023-02-14T17:51:51.923Z,64.16
2023-02-14T17:54:19.870Z,64.41
2023-02-14T17:56:49.109Z,63.85
2023-02-14T17:59:17.061Z,64.19
2023-02-14T18:01:45.076Z,64.07
2023-02-14T18:04:12.910Z,65.63
2023-02-14T18:06:42.533Z,64.69
2023-02-14T18:09:14.170Z,65.41
2023-02-14T18:11:46.338Z,65.10
2023-02-14T18:14:15.642Z,65.55
2023-02-14T18:16:43.922Z,66.32
2023-02-14T18:19:17.627Z,65.97
2023-02-14T18:21:46.373Z,66.25
2023-02-14T18:24:15.560Z,66.38
2023-02-14T18:26:44.507Z,66.67
2023-02-14T18:29:13.640Z,67.51
2023-02-14T18:31:45.543Z,68.16
2023-02-14T18:34:20.681Z,68.22
2023-02-14T18:36:49.341Z,67.74
2023-02-14T18:39:21.883Z,68.79
2023-02-14T18:41:52.338Z,67.97
2023-02-14T18:44:23.714Z,69.22
2023-02-14T18:46:54.977Z,69.27
2023-02-14T18:49:25.855Z,70.57
2023-02-14T18:51:54.929Z,69.57
2023-02-14T18:57:09.395Z,70.66
2023-02-14T18:59:38.300Z,70.42
2023-02-14T19:02:07.588Z,69.79
2023-02-14T19:04:38.391Z,69.88
2023-02-14T19:07:09.379Z,70.16
2023-02-14T19:09:39.863Z,69.29
2023-02-14T19:12:07.858Z,70.94
2023-02-14T19:14:36.101Z,69.48
2023-02-14T19:17:13.197Z,68.50
2023-02-14T19:19:41.196Z,67.43
2023-02-14T19:22:09.214Z,67.83
2023-02-14T19:24:44.184Z,68.19
2023-02-14T19:27:13.370Z,66.76
2023-02-14T19:29:45.136Z,66.87
2023-02-14T19:32:14.520Z,67.78
2023-02-14T19:34:42.591Z,67.92
2023-02-14T19:37:10.424Z,68.17
2023-02-14T19:39:38.343Z,68.07
2023-02-14T19:42:06.497Z,67.50
2023-02-14T19:44:36.798Z,66.69
2023-02-14T19:47:15.692Z,65.71
2023-02-14T19:49:55.073Z,64.48
2023-02-14T19:52:26.889Z,67.01
2023-02-14T19:54:55.923Z,67.75
2023-02-14T19:57:29.348Z,65.76
2023-02-14T19:59:58.769Z,66.83
2023-02-14T20:02:26.692Z,69.33
2023-02-14T20:04:59.265Z,68.47
2023-02-14T20:07:35.246Z,68.42
2023-02-14T20:10:03.397Z,67.98
2023-02-14T20:12:31.328Z,65.67
2023-02-14T20:15:05.649Z,65.34
2023-02-14T20:17:34.711Z,65.12
2023-02-14T20:20:06.218Z,65.93
2023-02-14T20:22:36.468Z,65.87
2023-02-14T20:25:05.652Z,65.03
2023-02-14T20:27:44.726Z,66.06
2023-02-14T20:30:14.793Z,65.29
2023-02-14T20:32:42.727Z,67.13
2023-02-14T20:35:13.283Z,67.01
2023-02-14T20:37:41.436Z,67.74
2023-02-14T20:40:11.820Z,68.79
2023-02-14T20:42:43.558Z,69.95
2023-02-14T20:45:12.299Z,70.25
2023-02-14T20:47:40.141Z,70.52
2023-02-14T20:50:15.968Z,71.00
2023-02-14T20:52:43.825Z,71.67
2023-02-14T20:55:11.686Z,73.78
2023-02-14T20:57:40.484Z,74.04
2023-02-14T21:00:11.415Z,75.88
2023-02-14T21:02:44.760Z,75.10
2023-02-14T21:05:18.432Z,73.29
2023-02-14T21:07:50.140Z,72.97
2023-02-14T21:10:20.391Z,72.88
2023-02-14T21:12:54.694Z,72.75
2023-02-14T21:15:22.737Z,71.86
2023-02-14T21:17:50.773Z,72.01
2023-02-14T21:20:31.137Z,72.65
2023-02-14T21:22:58.956Z,73.56
2023-02-14T21:25:28.458Z,71.37
2023-02-14T21:27:57.497Z,69.80
2023-02-14T21:30:30.894Z,68.52
2023-02-14T21:32:58.744Z,69.85
2023-02-14T21:35:31.478Z,69.27
2023-02-14T21:38:00.411Z,68.41
2023-02-14T21:40:29.515Z,69.38
2023-02-14T21:42:57.370Z,71.00
2023-02-14T21:45:42.564Z,71.14
2023-02-14T21:48:29.178Z,70.85
2023-02-14T21:51:06.120Z,69.63
2023-02-14T21:53:36.452Z,69.52
2023-02-14T21:56:10.529Z,69.08
2023-02-14T21:58:40.479Z,69.21
2023-02-14T22:01:09.390Z,68.08
2023-02-14T22:03:39.618Z,69.82
2023-02-14T22:06:11.526Z,68.60
2023-02-14T22:08:45.059Z,68.71
2023-02-14T22:11:14.710Z,69.48
2023-02-14T22:13:43.038Z,69.85
2023-02-14T22:16:15.267Z,71.68
2023-02-14T22:18:44.502Z,74.12
2023-02-14T22:21:24.555Z,71.95
2023-02-14T22:23:53.553Z,72.65
2023-02-14T22:26:25.766Z,70.60
2023-02-14T22:28:57.017Z,70.50
2023-02-14T22:31:28.025Z,70.82
2023-02-14T22:36:38.168Z,69.52
2023-02-14T22:41:54.391Z,70.94
2023-02-14T22:44:22.228Z,72.09
2023-02-14T22:46:50.431Z,69.98
2023-02-14T22:49:20.463Z,68.93
2023-02-14T22:51:49.631Z,69.27
2023-02-14T22:54:20.375Z,68.19
2023-02-14T22:56:57.360Z,68.16
2023-02-14T22:59:30.000Z,68.47
2023-02-14T23:02:01.356Z,69.70
2023-02-14T23:04:32.071Z,69.02
2023-02-14T23:07:15.453Z,68.60
2023-02-14T23:09:43.230Z,69.02
2023-02-14T23:12:27.984Z,67.77
2023-02-14T23:15:30.188Z,68.22
2023-02-14T23:18:15.420Z,71.67
2023-02-14T23:21:04.997Z,72.52
2023-02-14T23:23:38.789Z,73.08
2023-02-14T23:26:07.778Z,71.54
2023-02-14T23:28:36.969Z,70.10
2023-02-14T23:31:06.850Z,69.00
2023-02-14T23:33:34.665Z,70.11
2023-02-14T23:36:06.307Z,68.74
2023-02-14T23:38:36.479Z,69.66
2023-02-14T23:41:29.984Z,70.01
2023-02-14T23:43:57.749Z,68.99
2023-02-14T23:46:25.589Z,69.09
2023-02-14T23:48:53.371Z,68.74
2023-02-14T23:51:21.121Z,69.85
2023-02-14T23:53:53.201Z,68.77
2023-02-14T23:56:21.542Z,69.04
2023-02-14T23:58:49.333Z,70.02
